sensor_id;sensor_type;location;lat;lon;timestamp;P1;durP1;ratioP1;P2;durP2;ratioP2
66384;SDS011;53426;55.872;37.462;2022-07-12T00:01:34;6.28;;;2.30;;
66384;SDS011;53426;55.872;37.462;2022-07-12T00:06:50;2.85;;;2.40;;
66384;SDS011;53426;55.872;37.462;2022-07-12T00:09:16;3.80;;;2.17;;
66384;SDS011;53426;55.872;37.462;2022-07-12T00:12:11;2.63;;;2.42;;
66384;SDS011;53426;55.872;37.462;2022-07-12T00:32:47;2.75;;;2.55;;
66384;SDS011;53426;55.872;37.462;2022-07-12T00:35:21;4.20;;;2.85;;
66384;SDS011;53426;55.872;37.462;2022-07-12T00:37:46;3.13;;;2.78;;
66384;SDS011;53426;55.872;37.462;2022-07-12T00:43:59;5.30;;;2.60;;
66384;SDS011;53426;55.872;37.462;2022-07-12T00:46:32;2.75;;;2.50;;
66384;SDS011;53426;55.872;37.462;2022-07-12T00:52:14;5.85;;;2.83;;
66384;SDS011;53426;55.872;37.462;2022-07-12T00:58:33;4.88;;;2.70;;
66384;SDS011;53426;55.872;37.462;2022-07-12T01:01:06;3.08;;;2.83;;
66384;SDS011;53426;55.872;37.462;2022-07-12T01:03:42;2.92;;;2.72;;
66384;SDS011;53426;55.872;37.462;2022-07-12T01:06:08;5.20;;;3.00;;
66384;SDS011;53426;55.872;37.462;2022-07-12T01:08:34;10.43;;;2.60;;
66384;SDS011;53426;55.872;37.462;2022-07-12T01:11:00;3.00;;;2.80;;
66384;SDS011;53426;55.872;37.462;2022-07-12T01:13:27;3.78;;;2.75;;
66384;SDS011;53426;55.872;37.462;2022-07-12T01:15:53;10.63;;;3.05;;
66384;SDS011;53426;55.872;37.462;2022-07-12T01:18:19;2.60;;;2.42;;
66384;SDS011;53426;55.872;37.462;2022-07-12T01:20:45;4.07;;;2.80;;
66384;SDS011;53426;55.872;37.462;2022-07-12T01:23:13;4.63;;;3.00;;
66384;SDS011;53426;55.872;37.462;2022-07-12T01:25:39;2.72;;;2.55;;
66384;SDS011;53426;55.872;37.462;2022-07-12T01:28:05;10.30;;;2.47;;
66384;SDS011;53426;55.872;37.462;2022-07-12T01:33:27;4.68;;;3.05;;
66384;SDS011;53426;55.872;37.462;2022-07-12T01:38:49;4.07;;;3.67;;
66384;SDS011;53426;55.872;37.462;2022-07-12T01:41:19;3.50;;;3.20;;
66384;SDS011;53426;55.872;37.462;2022-07-12T01:54:08;7.25;;;3.50;;
66384;SDS011;53426;55.872;37.462;2022-07-12T02:06:21;9.65;;;5.00;;
66384;SDS011;53426;55.872;37.462;2022-07-12T02:08:51;9.32;;;5.15;;
66384;SDS011;53426;55.872;37.462;2022-07-12T02:15:52;21.77;;;5.57;;
66384;SDS011;53426;55.872;37.462;2022-07-12T02:18:19;8.45;;;4.90;;
66384;SDS011;53426;55.872;37.462;2022-07-12T02:20:45;6.88;;;4.82;;
66384;SDS011;53426;55.872;37.462;2022-07-12T02:23:10;10.25;;;5.63;;
66384;SDS011;53426;55.872;37.462;2022-07-12T02:25:37;5.82;;;5.32;;
66384;SDS011;53426;55.872;37.462;2022-07-12T02:28:02;5.60;;;5.10;;
66384;SDS011;53426;55.872;37.462;2022-07-12T02:30:28;6.22;;;5.38;;
66384;SDS011;53426;55.872;37.462;2022-07-12T02:32:54;10.10;;;5.15;;
66384;SDS011;53426;55.872;37.462;2022-07-12T02:40:51;5.97;;;4.63;;
66384;SDS011;53426;55.872;37.462;2022-07-12T02:43:24;8.85;;;4.85;;
66384;SDS011;53426;55.872;37.462;2022-07-12T02:45:55;5.00;;;4.50;;
66384;SDS011;53426;55.872;37.462;2022-07-12T02:50:54;6.03;;;4.47;;
66384;SDS011;53426;55.872;37.462;2022-07-12T02:53:20;7.20;;;4.85;;
66384;SDS011;53426;55.872;37.462;2022-07-12T02:55:46;5.03;;;4.55;;
66384;SDS011;53426;55.872;37.462;2022-07-12T02:58:12;5.13;;;4.72;;
66384;SDS011;53426;55.872;37.462;2022-07-12T03:09:15;4.97;;;4.50;;
66384;SDS011;53426;55.872;37.462;2022-07-12T03:17:01;5.65;;;4.50;;
66384;SDS011;53426;55.872;37.462;2022-07-12T03:19:29;5.38;;;4.55;;
66384;SDS011;53426;55.872;37.462;2022-07-12T03:21:58;6.80;;;4.78;;
66384;SDS011;53426;55.872;37.462;2022-07-12T03:24:24;5.63;;;4.53;;
66384;SDS011;53426;55.872;37.462;2022-07-12T03:29:34;4.63;;;4.20;;
66384;SDS011;53426;55.872;37.462;2022-07-12T03:32:04;5.35;;;4.45;;
66384;SDS011;53426;55.872;37.462;2022-07-12T03:41:43;8.25;;;4.28;;
66384;SDS011;53426;55.872;37.462;2022-07-12T03:44:11;4.75;;;3.88;;
66384;SDS011;53426;55.872;37.462;2022-07-12T03:46:40;9.07;;;3.92;;
66384;SDS011;53426;55.872;37.462;2022-07-12T03:49:05;7.72;;;4.00;;
66384;SDS011;53426;55.872;37.462;2022-07-12T03:51:31;10.13;;;4.15;;
66384;SDS011;53426;55.872;37.462;2022-07-12T03:53:57;6.53;;;4.30;;
66384;SDS011;53426;55.872;37.462;2022-07-12T03:56:28;4.70;;;3.95;;
66384;SDS011;53426;55.872;37.462;2022-07-12T03:59:13;8.15;;;4.45;;
66384;SDS011;53426;55.872;37.462;2022-07-12T04:01:41;4.72;;;4.18;;
66384;SDS011;53426;55.872;37.462;2022-07-12T04:17:54;5.95;;;4.20;;
66384;SDS011;53426;55.872;37.462;2022-07-12T04:20:22;5.25;;;4.22;;
66384;SDS011;53426;55.872;37.462;2022-07-12T04:22:50;7.47;;;4.28;;
66384;SDS011;53426;55.872;37.462;2022-07-12T04:34:12;7.30;;;4.93;;
66384;SDS011;53426;55.872;37.462;2022-07-12T04:36:44;5.07;;;4.50;;
66384;SDS011;53426;55.872;37.462;2022-07-12T04:39:11;8.77;;;4.82;;
66384;SDS011;53426;55.872;37.462;2022-07-12T04:41:37;4.90;;;4.40;;
66384;SDS011;53426;55.872;37.462;2022-07-12T04:44:04;5.60;;;4.50;;
66384;SDS011;53426;55.872;37.462;2022-07-12T04:49:21;4.95;;;4.25;;
66384;SDS011;53426;55.872;37.462;2022-07-12T04:51:47;7.95;;;4.82;;
66384;SDS011;53426;55.872;37.462;2022-07-12T04:54:13;7.00;;;4.50;;
66384;SDS011;53426;55.872;37.462;2022-07-12T04:56:38;7.40;;;4.45;;
66384;SDS011;53426;55.872;37.462;2022-07-12T04:59:04;5.18;;;4.68;;
66384;SDS011;53426;55.872;37.462;2022-07-12T05:04:25;9.18;;;4.35;;
66384;SDS011;53426;55.872;37.462;2022-07-12T05:06:53;7.72;;;5.22;;
66384;SDS011;53426;55.872;37.462;2022-07-12T05:09:19;10.48;;;4.75;;
66384;SDS011;53426;55.872;37.462;2022-07-12T05:11:44;6.05;;;4.60;;
66384;SDS011;53426;55.872;37.462;2022-07-12T05:14:10;7.00;;;4.53;;
66384;SDS011;53426;55.872;37.462;2022-07-12T05:16:36;11.13;;;4.65;;
66384;SDS011;53426;55.872;37.462;2022-07-12T05:19:09;9.65;;;4.75;;
66384;SDS011;53426;55.872;37.462;2022-07-12T05:21:47;10.75;;;4.57;;
66384;SDS011;53426;55.872;37.462;2022-07-12T05:24:20;9.23;;;4.47;;
66384;SDS011;53426;55.872;37.462;2022-07-12T05:30:45;5.55;;;4.57;;
66384;SDS011;53426;55.872;37.462;2022-07-12T05:48:26;7.07;;;4.35;;
66384;SDS011;53426;55.872;37.462;2022-07-12T05:50:52;7.38;;;4.00;;
66384;SDS011;53426;55.872;37.462;2022-07-12T05:53:18;10.90;;;4.40;;
66384;SDS011;53426;55.872;37.462;2022-07-12T06:08:52;10.35;;;4.05;;
66384;SDS011;53426;55.872;37.462;2022-07-12T06:11:18;6.55;;;4.35;;
66384;SDS011;53426;55.872;37.462;2022-07-12T06:13:44;10.52;;;4.60;;
66384;SDS011;53426;55.872;37.462;2022-07-12T06:16:10;7.65;;;4.88;;
66384;SDS011;53426;55.872;37.462;2022-07-12T06:21:27;11.95;;;4.18;;
66384;SDS011;53426;55.872;37.462;2022-07-12T06:23:53;5.55;;;4.45;;
66384;SDS011;53426;55.872;37.462;2022-07-12T06:26:20;8.07;;;4.28;;
66384;SDS011;53426;55.872;37.462;2022-07-12T06:28:46;8.07;;;4.28;;
66384;SDS011;53426;55.872;37.462;2022-07-12T06:31:12;11.90;;;4.55;;
66384;SDS011;53426;55.872;37.462;2022-07-12T06:33:39;11.65;;;4.63;;
66384;SDS011;53426;55.872;37.462;2022-07-12T06:36:04;17.08;;;5.07;;
66384;SDS011;53426;55.872;37.462;2022-07-12T06:38:30;9.95;;;4.60;;
66384;SDS011;53426;55.872;37.462;2022-07-12T06:40:59;17.15;;;7.03;;
66384;SDS011;53426;55.872;37.462;2022-07-12T06:43:27;10.45;;;4.32;;
66384;SDS011;53426;55.872;37.462;2022-07-12T06:45:53;10.25;;;4.88;;
66384;SDS011;53426;55.872;37.462;2022-07-12T06:48:19;7.55;;;4.57;;
66384;SDS011;53426;55.872;37.462;2022-07-12T06:50:48;10.60;;;5.05;;
66384;SDS011;53426;55.872;37.462;2022-07-12T06:53:13;10.18;;;4.70;;
66384;SDS011;53426;55.872;37.462;2022-07-12T06:55:40;40.55;;;6.47;;
66384;SDS011;53426;55.872;37.462;2022-07-12T06:58:07;12.05;;;6.20;;
66384;SDS011;53426;55.872;37.462;2022-07-12T07:00:40;12.55;;;7.68;;
66384;SDS011;53426;55.872;37.462;2022-07-12T07:03:14;11.18;;;7.82;;
66384;SDS011;53426;55.872;37.462;2022-07-12T07:12:07;14.93;;;10.32;;
66384;SDS011;53426;55.872;37.462;2022-07-12T07:17:35;12.30;;;8.80;;
66384;SDS011;53426;55.872;37.462;2022-07-12T07:20:22;15.05;;;9.95;;
66384;SDS011;53426;55.872;37.462;2022-07-12T07:22:48;17.95;;;8.68;;
66384;SDS011;53426;55.872;37.462;2022-07-12T07:28:53;10.00;;;7.78;;
66384;SDS011;53426;55.872;37.462;2022-07-12T07:34:55;14.48;;;9.13;;
66384;SDS011;53426;55.872;37.462;2022-07-12T07:37:20;15.77;;;8.20;;
66384;SDS011;53426;55.872;37.462;2022-07-12T07:39:46;13.85;;;8.07;;
66384;SDS011;53426;55.872;37.462;2022-07-12T07:42:12;11.55;;;7.68;;
66384;SDS011;53426;55.872;37.462;2022-07-12T07:44:37;10.15;;;6.93;;
66384;SDS011;53426;55.872;37.462;2022-07-12T07:47:03;14.32;;;7.90;;
66384;SDS011;53426;55.872;37.462;2022-07-12T07:49:29;11.88;;;7.65;;
66384;SDS011;53426;55.872;37.462;2022-07-12T07:51:55;16.38;;;7.53;;
66384;SDS011;53426;55.872;37.462;2022-07-12T07:54:21;18.15;;;7.72;;
66384;SDS011;53426;55.872;37.462;2022-07-12T07:56:47;9.88;;;6.75;;
66384;SDS011;53426;55.872;37.462;2022-07-12T07:59:13;17.23;;;6.28;;
66384;SDS011;53426;55.872;37.462;2022-07-12T08:01:38;14.18;;;6.80;;
66384;SDS011;53426;55.872;37.462;2022-07-12T08:04:11;10.43;;;6.22;;
66384;SDS011;53426;55.872;37.462;2022-07-12T08:06:42;17.98;;;6.35;;
66384;SDS011;53426;55.872;37.462;2022-07-12T08:09:08;7.32;;;5.80;;
66384;SDS011;53426;55.872;37.462;2022-07-12T08:11:34;7.18;;;5.47;;
66384;SDS011;53426;55.872;37.462;2022-07-12T08:14:00;11.88;;;5.68;;
66384;SDS011;53426;55.872;37.462;2022-07-12T08:16:27;14.05;;;6.07;;
66384;SDS011;53426;55.872;37.462;2022-07-12T08:18:53;12.05;;;6.03;;
66384;SDS011;53426;55.872;37.462;2022-07-12T08:21:19;7.70;;;5.60;;
66384;SDS011;53426;55.872;37.462;2022-07-12T08:23:45;10.25;;;5.85;;
66384;SDS011;53426;55.872;37.462;2022-07-12T08:26:11;9.30;;;5.80;;
66384;SDS011;53426;55.872;37.462;2022-07-12T08:28:36;11.93;;;5.78;;
66384;SDS011;53426;55.872;37.462;2022-07-12T08:31:02;11.88;;;5.75;;
66384;SDS011;53426;55.872;37.462;2022-07-12T08:33:28;5.57;;;5.05;;
66384;SDS011;53426;55.872;37.462;2022-07-12T08:35:55;8.88;;;5.32;;
66384;SDS011;53426;55.872;37.462;2022-07-12T08:38:24;13.10;;;5.35;;
66384;SDS011;53426;55.872;37.462;2022-07-12T08:40:50;7.55;;;5.30;;
66384;SDS011;53426;55.872;37.462;2022-07-12T08:43:15;13.10;;;4.95;;
66384;SDS011;53426;55.872;37.462;2022-07-12T08:45:41;6.13;;;4.55;;
66384;SDS011;53426;55.872;37.462;2022-07-12T08:48:08;14.90;;;5.38;;
66384;SDS011;53426;55.872;37.462;2022-07-12T08:50:34;8.55;;;4.50;;
66384;SDS011;53426;55.872;37.462;2022-07-12T08:53:00;14.85;;;4.88;;
66384;SDS011;53426;55.872;37.462;2022-07-12T08:55:28;11.20;;;4.43;;
66384;SDS011;53426;55.872;37.462;2022-07-12T08:57:57;7.00;;;3.75;;
66384;SDS011;53426;55.872;37.462;2022-07-12T09:00:24;8.13;;;4.32;;
66384;SDS011;53426;55.872;37.462;2022-07-12T09:02:54;8.50;;;4.07;;
66384;SDS011;53426;55.872;37.462;2022-07-12T09:05:25;6.03;;;3.72;;
66384;SDS011;53426;55.872;37.462;2022-07-12T09:10:28;5.70;;;3.95;;
66384;SDS011;53426;55.872;37.462;2022-07-12T09:12:54;8.27;;;3.45;;
66384;SDS011;53426;55.872;37.462;2022-07-12T09:15:21;6.10;;;4.10;;
66384;SDS011;53426;55.872;37.462;2022-07-12T09:17:56;6.15;;;3.78;;
66384;SDS011;53426;55.872;37.462;2022-07-12T09:20:37;13.18;;;4.70;;
66384;SDS011;53426;55.872;37.462;2022-07-12T09:23:11;9.60;;;3.78;;
66384;SDS011;53426;55.872;37.462;2022-07-12T09:25:37;9.35;;;3.47;;
66384;SDS011;53426;55.872;37.462;2022-07-12T09:28:05;4.45;;;3.53;;
66384;SDS011;53426;55.872;37.462;2022-07-12T09:30:34;6.05;;;2.90;;
66384;SDS011;53426;55.872;37.462;2022-07-12T09:33:05;5.68;;;3.70;;
66384;SDS011;53426;55.872;37.462;2022-07-12T09:41:20;6.18;;;3.65;;
66384;SDS011;53426;55.872;37.462;2022-07-12T09:43:47;4.05;;;3.55;;
66384;SDS011;53426;55.872;37.462;2022-07-12T09:46:13;6.28;;;3.47;;
66384;SDS011;53426;55.872;37.462;2022-07-12T09:48:40;5.90;;;3.58;;
66384;SDS011;53426;55.872;37.462;2022-07-12T09:51:10;4.10;;;3.20;;
66384;SDS011;53426;55.872;37.462;2022-07-12T09:56:35;6.07;;;3.20;;
66384;SDS011;53426;55.872;37.462;2022-07-12T09:59:09;5.40;;;3.08;;
66384;SDS011;53426;55.872;37.462;2022-07-12T10:11:12;4.07;;;3.35;;
66384;SDS011;53426;55.872;37.462;2022-07-12T10:13:39;6.45;;;3.10;;
66384;SDS011;53426;55.872;37.462;2022-07-12T10:19:35;8.77;;;3.40;;
66384;SDS011;53426;55.872;37.462;2022-07-12T10:32:24;4.60;;;3.50;;
66384;SDS011;53426;55.872;37.462;2022-07-12T10:38:15;5.35;;;3.25;;
66384;SDS011;53426;55.872;37.462;2022-07-12T10:40:42;11.05;;;3.10;;
66384;SDS011;53426;55.872;37.462;2022-07-12T10:43:14;9.48;;;4.03;;
66384;SDS011;53426;55.872;37.462;2022-07-12T10:45:44;6.53;;;3.50;;
66384;SDS011;53426;55.872;37.462;2022-07-12T10:50:59;7.22;;;3.33;;
66384;SDS011;53426;55.872;37.462;2022-07-12T10:53:38;3.85;;;3.00;;
66384;SDS011;53426;55.872;37.462;2022-07-12T11:16:02;8.95;;;1.65;;
66384;SDS011;53426;55.872;37.462;2022-07-12T11:18:29;1.23;;;1.13;;
66384;SDS011;53426;55.872;37.462;2022-07-12T11:20:57;2.03;;;1.67;;
66384;SDS011;53426;55.872;37.462;2022-07-12T11:23:25;11.13;;;1.45;;
66384;SDS011;53426;55.872;37.462;2022-07-12T11:26:00;3.60;;;1.40;;
66384;SDS011;53426;55.872;37.462;2022-07-12T11:28:28;8.68;;;1.75;;
66384;SDS011;53426;55.872;37.462;2022-07-12T11:38:25;3.70;;;1.50;;
66384;SDS011;53426;55.872;37.462;2022-07-12T11:50:45;3.03;;;1.20;;
66384;SDS011;53426;55.872;37.462;2022-07-12T11:53:15;3.03;;;1.40;;
66384;SDS011;53426;55.872;37.462;2022-07-12T11:56:09;4.47;;;1.25;;
66384;SDS011;53426;55.872;37.462;2022-07-12T11:58:42;5.05;;;1.65;;
66384;SDS011;53426;55.872;37.462;2022-07-12T12:01:20;10.95;;;1.83;;
66384;SDS011;53426;55.872;37.462;2022-07-12T12:03:52;3.60;;;1.30;;
66384;SDS011;53426;55.872;37.462;2022-07-12T12:13:43;2.03;;;1.40;;
66384;SDS011;53426;55.872;37.462;2022-07-12T12:23:20;1.67;;;1.58;;
66384;SDS011;53426;55.872;37.462;2022-07-12T12:25:51;6.70;;;1.75;;
66384;SDS011;53426;55.872;37.462;2022-07-12T12:28:17;4.18;;;1.58;;
66384;SDS011;53426;55.872;37.462;2022-07-12T12:30:52;1.60;;;1.50;;
66384;SDS011;53426;55.872;37.462;2022-07-12T12:37:17;7.18;;;1.83;;
66384;SDS011;53426;55.872;37.462;2022-07-12T13:00:56;6.35;;;1.83;;
66384;SDS011;53426;55.872;37.462;2022-07-12T13:03:22;3.90;;;1.40;;
66384;SDS011;53426;55.872;37.462;2022-07-12T13:08:23;16.88;;;2.95;;
66384;SDS011;53426;55.872;37.462;2022-07-12T13:10:50;7.68;;;1.95;;
66384;SDS011;53426;55.872;37.462;2022-07-12T13:13:38;2.67;;;2.00;;
66384;SDS011;53426;55.872;37.462;2022-07-12T13:16:05;4.00;;;1.70;;
66384;SDS011;53426;55.872;37.462;2022-07-12T13:18:31;8.50;;;2.03;;
66384;SDS011;53426;55.872;37.462;2022-07-12T13:20:58;6.28;;;1.85;;
66384;SDS011;53426;55.872;37.462;2022-07-12T13:23:24;8.95;;;1.90;;
66384;SDS011;53426;55.872;37.462;2022-07-12T13:25:50;6.63;;;2.13;;
66384;SDS011;53426;55.872;37.462;2022-07-12T13:28:17;6.43;;;2.00;;
66384;SDS011;53426;55.872;37.462;2022-07-12T13:30:43;8.57;;;2.42;;
66384;SDS011;53426;55.872;37.462;2022-07-12T13:33:09;2.90;;;1.73;;
66384;SDS011;53426;55.872;37.462;2022-07-12T13:35:34;5.80;;;1.60;;
66384;SDS011;53426;55.872;37.462;2022-07-12T13:38:00;7.15;;;1.80;;
66384;SDS011;53426;55.872;37.462;2022-07-12T13:40:26;2.38;;;1.70;;
66384;SDS011;53426;55.872;37.462;2022-07-12T13:42:52;1.50;;;1.40;;
66384;SDS011;53426;55.872;37.462;2022-07-12T13:45:22;7.38;;;1.85;;
66384;SDS011;53426;55.872;37.462;2022-07-12T13:47:50;1.67;;;1.58;;
66384;SDS011;53426;55.872;37.462;2022-07-12T13:50:17;3.20;;;1.50;;
66384;SDS011;53426;55.872;37.462;2022-07-12T13:52:45;2.97;;;1.63;;
66384;SDS011;53426;55.872;37.462;2022-07-12T13:55:13;6.05;;;1.48;;
66384;SDS011;53426;55.872;37.462;2022-07-12T13:57:41;6.43;;;1.73;;
66384;SDS011;53426;55.872;37.462;2022-07-12T14:00:08;4.97;;;1.40;;
66384;SDS011;53426;55.872;37.462;2022-07-12T14:02:40;4.82;;;1.90;;
66384;SDS011;53426;55.872;37.462;2022-07-12T14:05:08;6.60;;;1.20;;
66384;SDS011;53426;55.872;37.462;2022-07-12T14:07:36;5.85;;;1.55;;
66384;SDS011;53426;55.872;37.462;2022-07-12T14:10:03;7.97;;;1.80;;
66384;SDS011;53426;55.872;37.462;2022-07-12T14:12:29;6.47;;;1.50;;
66384;SDS011;53426;55.872;37.462;2022-07-12T14:14:55;3.08;;;1.55;;
66384;SDS011;53426;55.872;37.462;2022-07-12T14:17:41;2.53;;;1.67;;
66384;SDS011;53426;55.872;37.462;2022-07-12T14:20:09;3.85;;;1.70;;
66384;SDS011;53426;55.872;37.462;2022-07-12T14:22:37;8.23;;;2.22;;
66384;SDS011;53426;55.872;37.462;2022-07-12T14:25:04;13.30;;;3.15;;
66384;SDS011;53426;55.872;37.462;2022-07-12T14:27:31;3.90;;;2.25;;
66384;SDS011;53426;55.872;37.462;2022-07-12T14:29:58;2.97;;;1.75;;
66384;SDS011;53426;55.872;37.462;2022-07-12T14:32:23;10.75;;;2.13;;
66384;SDS011;53426;55.872;37.462;2022-07-12T14:34:49;3.10;;;1.75;;
66384;SDS011;53426;55.872;37.462;2022-07-12T14:37:15;8.10;;;2.65;;
66384;SDS011;53426;55.872;37.462;2022-07-12T14:39:41;3.45;;;1.80;;
66384;SDS011;53426;55.872;37.462;2022-07-12T14:42:07;14.07;;;2.90;;
66384;SDS011;53426;55.872;37.462;2022-07-12T14:44:33;3.85;;;1.58;;
66384;SDS011;53426;55.872;37.462;2022-07-12T14:47:00;6.38;;;1.90;;
66384;SDS011;53426;55.872;37.462;2022-07-12T14:49:25;5.03;;;2.47;;
66384;SDS011;53426;55.872;37.462;2022-07-12T14:51:53;5.32;;;1.77;;
66384;SDS011;53426;55.872;37.462;2022-07-12T14:54:19;4.65;;;2.30;;
66384;SDS011;53426;55.872;37.462;2022-07-12T14:56:44;6.55;;;2.10;;
66384;SDS011;53426;55.872;37.462;2022-07-12T14:59:10;9.32;;;2.33;;
66384;SDS011;53426;55.872;37.462;2022-07-12T15:01:36;3.10;;;1.80;;
66384;SDS011;53426;55.872;37.462;2022-07-12T15:04:02;1.95;;;1.83;;
66384;SDS011;53426;55.872;37.462;2022-07-12T15:06:28;4.88;;;1.90;;
66384;SDS011;53426;55.872;37.462;2022-07-12T15:08:54;4.43;;;2.05;;
66384;SDS011;53426;55.872;37.462;2022-07-12T15:11:20;1.80;;;1.70;;
66384;SDS011;53426;55.872;37.462;2022-07-12T15:13:46;4.32;;;2.30;;
66384;SDS011;53426;55.872;37.462;2022-07-12T15:16:12;3.75;;;2.20;;
66384;SDS011;53426;55.872;37.462;2022-07-12T15:18:38;5.15;;;2.33;;
66384;SDS011;53426;55.872;37.462;2022-07-12T15:21:04;3.97;;;2.70;;
66384;SDS011;53426;55.872;37.462;2022-07-12T15:23:30;7.20;;;2.50;;
66384;SDS011;53426;55.872;37.462;2022-07-12T15:25:58;5.00;;;2.03;;
66384;SDS011;53426;55.872;37.462;2022-07-12T15:28:25;5.90;;;2.40;;
66384;SDS011;53426;55.872;37.462;2022-07-12T15:30:52;6.53;;;2.15;;
66384;SDS011;53426;55.872;37.462;2022-07-12T15:33:18;7.63;;;1.90;;
66384;SDS011;53426;55.872;37.462;2022-07-12T15:35:44;7.60;;;2.60;;
66384;SDS011;53426;55.872;37.462;2022-07-12T15:38:10;2.65;;;2.00;;
66384;SDS011;53426;55.872;37.462;2022-07-12T15:40:35;3.67;;;1.92;;
66384;SDS011;53426;55.872;37.462;2022-07-12T15:43:02;3.95;;;2.17;;
66384;SDS011;53426;55.872;37.462;2022-07-12T15:45:28;7.85;;;2.30;;
66384;SDS011;53426;55.872;37.462;2022-07-12T15:47:55;5.70;;;2.28;;
66384;SDS011;53426;55.872;37.462;2022-07-12T15:50:21;8.88;;;3.28;;
66384;SDS011;53426;55.872;37.462;2022-07-12T15:52:47;12.40;;;3.42;;
66384;SDS011;53426;55.872;37.462;2022-07-12T15:55:31;4.10;;;2.20;;
66384;SDS011;53426;55.872;37.462;2022-07-12T15:57:58;7.80;;;2.50;;
66384;SDS011;53426;55.872;37.462;2022-07-12T16:00:24;5.63;;;2.33;;
66384;SDS011;53426;55.872;37.462;2022-07-12T16:02:51;4.93;;;2.35;;
66384;SDS011;53426;55.872;37.462;2022-07-12T16:05:18;7.25;;;2.28;;
66384;SDS011;53426;55.872;37.462;2022-07-12T16:07:44;7.38;;;2.50;;
66384;SDS011;53426;55.872;37.462;2022-07-12T16:10:10;5.18;;;2.00;;
66384;SDS011;53426;55.872;37.462;2022-07-12T16:12:37;5.82;;;2.40;;
66384;SDS011;53426;55.872;37.462;2022-07-12T16:15:05;6.95;;;2.22;;
66384;SDS011;53426;55.872;37.462;2022-07-12T16:17:32;3.28;;;2.25;;
66384;SDS011;53426;55.872;37.462;2022-07-12T16:19:58;3.33;;;2.65;;
66384;SDS011;53426;55.872;37.462;2022-07-12T16:22:24;5.78;;;2.45;;
66384;SDS011;53426;55.872;37.462;2022-07-12T16:24:50;8.60;;;2.22;;
66384;SDS011;53426;55.872;37.462;2022-07-12T16:27:15;4.38;;;1.73;;
66384;SDS011;53426;55.872;37.462;2022-07-12T16:29:43;2.17;;;2.08;;
66384;SDS011;53426;55.872;37.462;2022-07-12T16:32:08;5.10;;;2.17;;
66384;SDS011;53426;55.872;37.462;2022-07-12T16:34:34;5.03;;;2.10;;
66384;SDS011;53426;55.872;37.462;2022-07-12T16:37:00;8.68;;;1.98;;
66384;SDS011;53426;55.872;37.462;2022-07-12T16:39:26;7.25;;;2.45;;
66384;SDS011;53426;55.872;37.462;2022-07-12T16:41:52;8.65;;;2.92;;
66384;SDS011;53426;55.872;37.462;2022-07-12T16:44:18;5.35;;;2.58;;
66384;SDS011;53426;55.872;37.462;2022-07-12T16:46:44;4.70;;;2.28;;
66384;SDS011;53426;55.872;37.462;2022-07-12T16:49:09;2.63;;;2.42;;
66384;SDS011;53426;55.872;37.462;2022-07-12T16:51:35;8.52;;;2.75;;
66384;SDS011;53426;55.872;37.462;2022-07-12T16:54:01;3.28;;;2.58;;
66384;SDS011;53426;55.872;37.462;2022-07-12T16:56:30;3.90;;;2.67;;
66384;SDS011;53426;55.872;37.462;2022-07-12T16:58:57;7.13;;;3.03;;
66384;SDS011;53426;55.872;37.462;2022-07-12T17:01:25;4.78;;;2.58;;
66384;SDS011;53426;55.872;37.462;2022-07-12T17:03:52;4.50;;;2.10;;
66384;SDS011;53426;55.872;37.462;2022-07-12T17:06:18;3.25;;;2.38;;
66384;SDS011;53426;55.872;37.462;2022-07-12T17:08:45;2.47;;;1.90;;
66384;SDS011;53426;55.872;37.462;2022-07-12T17:11:11;9.30;;;2.40;;
66384;SDS011;53426;55.872;37.462;2022-07-12T17:13:38;10.82;;;2.67;;
66384;SDS011;53426;55.872;37.462;2022-07-12T17:16:05;9.57;;;2.53;;
66384;SDS011;53426;55.872;37.462;2022-07-12T17:18:31;8.30;;;2.15;;
66384;SDS011;53426;55.872;37.462;2022-07-12T17:20:57;2.38;;;2.05;;
66384;SDS011;53426;55.872;37.462;2022-07-12T17:23:24;6.35;;;2.08;;
66384;SDS011;53426;55.872;37.462;2022-07-12T17:25:50;9.55;;;2.28;;
66384;SDS011;53426;55.872;37.462;2022-07-12T17:28:16;12.13;;;2.58;;
66384;SDS011;53426;55.872;37.462;2022-07-12T17:30:44;7.07;;;2.80;;
66384;SDS011;53426;55.872;37.462;2022-07-12T17:33:10;8.50;;;2.20;;
66384;SDS011;53426;55.872;37.462;2022-07-12T17:35:37;3.72;;;2.30;;
66384;SDS011;53426;55.872;37.462;2022-07-12T17:38:06;3.75;;;2.70;;
66384;SDS011;53426;55.872;37.462;2022-07-12T17:40:33;3.63;;;2.40;;
66384;SDS011;53426;55.872;37.462;2022-07-12T17:42:59;4.15;;;2.70;;
66384;SDS011;53426;55.872;37.462;2022-07-12T17:45:26;5.80;;;2.80;;
66384;SDS011;53426;55.872;37.462;2022-07-12T17:47:53;5.57;;;2.45;;
66384;SDS011;53426;55.872;37.462;2022-07-12T17:50:20;6.20;;;2.17;;
66384;SDS011;53426;55.872;37.462;2022-07-12T17:52:46;4.50;;;2.40;;
66384;SDS011;53426;55.872;37.462;2022-07-12T17:55:14;5.10;;;2.60;;
66384;SDS011;53426;55.872;37.462;2022-07-12T17:57:40;5.55;;;2.60;;
66384;SDS011;53426;55.872;37.462;2022-07-12T18:00:27;6.22;;;2.63;;
66384;SDS011;53426;55.872;37.462;2022-07-12T18:02:53;3.60;;;2.58;;
66384;SDS011;53426;55.872;37.462;2022-07-12T18:05:19;12.60;;;3.25;;
66384;SDS011;53426;55.872;37.462;2022-07-12T18:07:46;5.90;;;2.25;;
66384;SDS011;53426;55.872;37.462;2022-07-12T18:10:12;5.03;;;2.80;;
66384;SDS011;53426;55.872;37.462;2022-07-12T18:12:38;3.13;;;2.20;;
66384;SDS011;53426;55.872;37.462;2022-07-12T18:15:22;4.20;;;2.47;;
66384;SDS011;53426;55.872;37.462;2022-07-12T18:17:48;9.18;;;2.95;;
66384;SDS011;53426;55.872;37.462;2022-07-12T18:20:26;4.03;;;2.38;;
66384;SDS011;53426;55.872;37.462;2022-07-12T18:22:53;12.77;;;2.47;;
66384;SDS011;53426;55.872;37.462;2022-07-12T18:25:19;5.63;;;3.15;;
66384;SDS011;53426;55.872;37.462;2022-07-12T18:27:45;9.68;;;2.75;;
66384;SDS011;53426;55.872;37.462;2022-07-12T18:30:11;6.82;;;2.42;;
66384;SDS011;53426;55.872;37.462;2022-07-12T18:32:38;5.72;;;2.80;;
66384;SDS011;53426;55.872;37.462;2022-07-12T18:35:04;6.78;;;2.92;;
66384;SDS011;53426;55.872;37.462;2022-07-12T18:37:31;8.40;;;2.50;;
66384;SDS011;53426;55.872;37.462;2022-07-12T18:39:56;12.38;;;2.80;;
66384;SDS011;53426;55.872;37.462;2022-07-12T18:42:22;9.77;;;3.17;;
66384;SDS011;53426;55.872;37.462;2022-07-12T18:44:50;13.93;;;2.80;;
66384;SDS011;53426;55.872;37.462;2022-07-12T18:47:16;8.98;;;3.15;;
66384;SDS011;53426;55.872;37.462;2022-07-12T18:49:42;8.98;;;3.42;;
66384;SDS011;53426;55.872;37.462;2022-07-12T18:52:09;8.85;;;2.80;;
66384;SDS011;53426;55.872;37.462;2022-07-12T18:54:35;10.75;;;3.00;;
66384;SDS011;53426;55.872;37.462;2022-07-12T18:57:01;7.65;;;3.13;;
66384;SDS011;53426;55.872;37.462;2022-07-12T18:59:30;6.03;;;2.88;;
66384;SDS011;53426;55.872;37.462;2022-07-12T19:01:56;7.53;;;3.38;;
66384;SDS011;53426;55.872;37.462;2022-07-12T19:04:22;12.05;;;3.30;;
66384;SDS011;53426;55.872;37.462;2022-07-12T19:06:48;16.05;;;3.40;;
66384;SDS011;53426;55.872;37.462;2022-07-12T19:09:14;9.55;;;2.88;;
66384;SDS011;53426;55.872;37.462;2022-07-12T19:11:40;10.68;;;3.30;;
66384;SDS011;53426;55.872;37.462;2022-07-12T19:14:07;9.75;;;3.10;;
66384;SDS011;53426;55.872;37.462;2022-07-12T19:16:33;16.27;;;3.05;;
66384;SDS011;53426;55.872;37.462;2022-07-12T19:18:59;8.73;;;2.95;;
66384;SDS011;53426;55.872;37.462;2022-07-12T19:21:32;13.00;;;3.30;;
66384;SDS011;53426;55.872;37.462;2022-07-12T19:24:02;7.22;;;2.78;;
66384;SDS011;53426;55.872;37.462;2022-07-12T19:26:32;8.60;;;3.45;;
66384;SDS011;53426;55.872;37.462;2022-07-12T19:28:59;7.15;;;3.00;;